PWSweather.com
Personal Weather Stations
Station Observations
PITCARMI1
La Serra, CarmignanoIT 59015

La SerraCarmignanoIT 59015

Lat: 43.804429, Lon: 11.027222

Elevation: 525

Station Type: Davis Vantage Vue

http://www.meteocarmignano.it

High Low Average
Temperature 60.0°F15.6°F 44.8°F7.1°F 51.9°F11.1°F
Dew Point 50.9°F10.5°F 40.4°F4.7°F 46.8°F8.2°F
Winds 2.3 mph ENE3.7 mph ENE Calm Calm 0.3 mph 0.5 mph
Wind Gusts 4.6 mph7.4 mph -- 1.0 mph1.6 mph
Humidity 96% 63% 83%
Pressure 30.43 in1030.50 in 30.18 in1022.00 in -
Precipitation 0.00 in0.00 in - -
Hour Temp Dew Point Humidity Winds Wind Gusts Pressure Precip Precip Rate Daily Precip Total
12:00 AM 51.6°F10.9°C 49.9°F9.9°C 94% Calm Calm 1.2 mph1.9 kmh 30.18 in1022.0 mb 0.00 in0.0 mm 0.00 in/hr0.0 mm/hr 0.00 in0.0 mm
12:30 AM 51.8°F11.0°C 50.1°F10.1°C 94% Calm Calm 1.2 mph1.9 kmh 30.18 in1022.0 mb 0.00 in0.0 mm 0.00 in/hr0.0 mm/hr 0.00 in0.0 mm
01:00 AM 51.7°F10.9°C 50.0°F10.0°C 94% Calm Calm -- 30.18 in1022.0 mb 0.00 in0.0 mm 0.00 in/hr0.0 mm/hr 0.00 in0.0 mm
01:30 AM 51.4°F10.8°C 49.7°F9.8°C 94% 1.2 mph NE1.9 kmh NE 2.3 mph3.7 kmh 30.18 in1022.0 mb 0.00 in0.0 mm 0.00 in/hr0.0 mm/hr 0.00 in0.0 mm
02:00 AM 51.2°F10.7°C 49.9°F9.9°C 95% Calm Calm -- 30.18 in1022.0 mb 0.00 in0.0 mm 0.00 in/hr0.0 mm/hr 0.00 in0.0 mm
02:30 AM 50.9°F10.5°C 49.5°F9.7°C 95% Calm Calm -- 30.19 in1022.4 mb 0.00 in0.0 mm 0.00 in/hr0.0 mm/hr 0.00 in0.0 mm
03:00 AM 50.8°F10.4°C 49.4°F9.7°C 95% Calm Calm 1.2 mph1.9 kmh 30.19 in1022.4 mb 0.00 in0.0 mm 0.00 in/hr0.0 mm/hr 0.00 in0.0 mm
03:30 AM 50.8°F10.4°C 49.4°F9.7°C 95% Calm Calm 1.2 mph1.9 kmh 30.19 in1022.4 mb 0.00 in0.0 mm 0.00 in/hr0.0 mm/hr 0.00 in0.0 mm
04:00 AM 50.9°F10.5°C 49.5°F9.7°C 95% Calm Calm -- 30.19 in1022.4 mb 0.00 in0.0 mm 0.00 in/hr0.0 mm/hr 0.00 in0.0 mm
04:30 AM 50.6°F10.3°C 49.3°F9.6°C 95% Calm Calm -- 30.18 in1022.0 mb 0.00 in0.0 mm 0.00 in/hr0.0 mm/hr 0.00 in0.0 mm
05:00 AM 50.6°F10.3°C 49.2°F9.6°C 95% Calm Calm -- 30.18 in1022.0 mb 0.00 in0.0 mm 0.00 in/hr0.0 mm/hr 0.00 in0.0 mm
05:30 AM 50.4°F10.2°C 49.0°F9.4°C 95% Calm Calm -- 30.19 in1022.4 mb 0.00 in0.0 mm 0.00 in/hr0.0 mm/hr 0.00 in0.0 mm
06:00 AM 49.7°F9.8°C 48.4°F9.1°C 95% 2.3 mph ENE3.7 kmh ENE 3.5 mph5.6 kmh 30.20 in1022.7 mb 0.00 in0.0 mm 0.00 in/hr0.0 mm/hr 0.00 in0.0 mm
06:30 AM 49.5°F9.7°C 48.4°F9.1°C 96% 1.2 mph ENE1.9 kmh ENE 1.2 mph1.9 kmh 30.22 in1023.4 mb 0.00 in0.0 mm 0.00 in/hr0.0 mm/hr 0.00 in0.0 mm
07:00 AM 49.3°F9.6°C 48.0°F8.9°C 95% Calm Calm -- 30.23 in1023.7 mb 0.00 in0.0 mm 0.00 in/hr0.0 mm/hr 0.00 in0.0 mm
07:30 AM 49.3°F9.6°C 48.0°F8.9°C 95% Calm Calm -- 30.24 in1024.0 mb 0.00 in0.0 mm 0.00 in/hr0.0 mm/hr 0.00 in0.0 mm
08:00 AM 48.8°F9.3°C 47.8°F8.8°C 96% Calm Calm -- 30.25 in1024.4 mb 0.00 in0.0 mm 0.00 in/hr0.0 mm/hr 0.00 in0.0 mm
08:30 AM 48.1°F8.9°C 46.7°F8.2°C 95% 2.3 mph W3.7 kmh W 3.5 mph5.6 kmh 30.26 in1024.7 mb 0.00 in0.0 mm 0.00 in/hr0.0 mm/hr 0.00 in0.0 mm
09:00 AM 49.9°F9.9°C 48.5°F9.2°C 95% Calm Calm -- 30.27 in1025.1 mb 0.00 in0.0 mm 0.00 in/hr0.0 mm/hr 0.00 in0.0 mm
09:30 AM 48.3°F9.1°C 46.1°F7.8°C 92% 1.2 mph WSW1.9 kmh WSW 2.3 mph3.7 kmh 30.28 in1025.4 mb 0.00 in0.0 mm 0.00 in/hr0.0 mm/hr 0.00 in0.0 mm
10:00 AM 50.4°F10.2°C 47.9°F8.8°C 91% Calm Calm -- 30.29 in1025.7 mb 0.00 in0.0 mm 0.00 in/hr0.0 mm/hr 0.00 in0.0 mm
10:30 AM 53.3°F11.8°C 48.0°F8.9°C 82% Calm Calm 1.2 mph1.9 kmh 30.30 in1026.1 mb 0.00 in0.0 mm 0.00 in/hr0.0 mm/hr 0.00 in0.0 mm
11:00 AM 55.0°F12.8°C 47.9°F8.8°C 77% Calm Calm 1.2 mph1.9 kmh 30.31 in1026.4 mb 0.00 in0.0 mm 0.00 in/hr0.0 mm/hr 0.00 in0.0 mm
11:30 AM 55.8°F13.2°C 49.0°F9.4°C 78% Calm Calm 1.2 mph1.9 kmh 30.32 in1026.8 mb 0.00 in0.0 mm 0.00 in/hr0.0 mm/hr 0.00 in0.0 mm
12:00 PM 56.3°F13.5°C 49.5°F9.7°C 78% Calm Calm 2.3 mph3.7 kmh 30.32 in1026.8 mb 0.00 in0.0 mm 0.00 in/hr0.0 mm/hr 0.00 in0.0 mm
12:30 PM 58.1°F14.5°C 49.1°F9.5°C 72% 1.2 mph SW1.9 kmh SW 2.3 mph3.7 kmh 30.31 in1026.4 mb 0.00 in0.0 mm 0.00 in/hr0.0 mm/hr 0.00 in0.0 mm
01:00 PM 58.5°F14.7°C 50.3°F10.2°C 74% 1.2 mph SW1.9 kmh SW 3.5 mph5.6 kmh 30.31 in1026.4 mb 0.00 in0.0 mm 0.00 in/hr0.0 mm/hr 0.00 in0.0 mm
01:30 PM 59.0°F15.0°C 48.8°F9.3°C 69% Calm Calm -- 30.31 in1026.4 mb 0.00 in0.0 mm 0.00 in/hr0.0 mm/hr 0.00 in0.0 mm
02:00 PM 59.9°F15.5°C 49.7°F9.8°C 69% Calm Calm 1.2 mph1.9 kmh 30.31 in1026.4 mb 0.00 in0.0 mm 0.00 in/hr0.0 mm/hr 0.00 in0.0 mm
02:30 PM 60.0°F15.6°C 50.2°F10.1°C 70% Calm Calm 1.2 mph1.9 kmh 30.30 in1026.1 mb 0.00 in0.0 mm 0.00 in/hr0.0 mm/hr 0.00 in0.0 mm
03:00 PM 59.2°F15.1°C 50.9°F10.5°C 74% Calm Calm 2.3 mph3.7 kmh 30.31 in1026.4 mb 0.00 in0.0 mm 0.00 in/hr0.0 mm/hr 0.00 in0.0 mm
03:30 PM 57.4°F14.1°C 49.5°F9.7°C 75% 2.3 mph W3.7 kmh W 4.6 mph7.4 kmh 30.31 in1026.4 mb 0.00 in0.0 mm 0.00 in/hr0.0 mm/hr 0.00 in0.0 mm
04:00 PM 56.0°F13.3°C 47.8°F8.8°C 74% Calm Calm 1.2 mph1.9 kmh 30.32 in1026.8 mb 0.00 in0.0 mm 0.00 in/hr0.0 mm/hr 0.00 in0.0 mm
04:30 PM 55.0°F12.8°C 42.6°F5.9°C 63% Calm Calm 1.2 mph1.9 kmh 30.33 in1027.1 mb 0.00 in0.0 mm 0.00 in/hr0.0 mm/hr 0.00 in0.0 mm
05:00 PM 53.9°F12.2°C 43.1°F6.2°C 67% Calm Calm -- 30.34 in1027.4 mb 0.00 in0.0 mm 0.00 in/hr0.0 mm/hr 0.00 in0.0 mm
05:30 PM 52.2°F11.2°C 40.4°F4.7°C 64% Calm Calm -- 30.34 in1027.4 mb 0.00 in0.0 mm 0.00 in/hr0.0 mm/hr 0.00 in0.0 mm
06:00 PM 52.0°F11.1°C 41.4°F5.2°C 67% Calm Calm -- 30.36 in1028.1 mb 0.00 in0.0 mm 0.00 in/hr0.0 mm/hr 0.00 in0.0 mm
06:30 PM 52.3°F11.3°C 43.9°F6.6°C 73% 1.2 mph WSW1.9 kmh WSW 2.3 mph3.7 kmh 30.37 in1028.4 mb 0.00 in0.0 mm 0.00 in/hr0.0 mm/hr 0.00 in0.0 mm
07:00 PM 50.8°F10.4°C 42.4°F5.8°C 73% Calm Calm -- 30.38 in1028.8 mb 0.00 in0.0 mm 0.00 in/hr0.0 mm/hr 0.00 in0.0 mm
07:30 PM 50.6°F10.3°C 43.3°F6.3°C 76% Calm Calm -- 30.40 in1029.5 mb 0.00 in0.0 mm 0.00 in/hr0.0 mm/hr 0.00 in0.0 mm
08:00 PM 50.0°F10.0°C 42.8°F6.0°C 76% 1.2 mph WNW1.9 kmh WNW 2.3 mph3.7 kmh 30.41 in1029.8 mb 0.00 in0.0 mm 0.00 in/hr0.0 mm/hr 0.00 in0.0 mm
08:30 PM 49.7°F9.8°C 42.1°F5.6°C 75% Calm Calm 1.2 mph1.9 kmh 30.40 in1029.5 mb 0.00 in0.0 mm 0.00 in/hr0.0 mm/hr 0.00 in0.0 mm
09:00 PM 49.5°F9.7°C 42.6°F5.9°C 77% Calm Calm -- 30.41 in1029.8 mb 0.00 in0.0 mm 0.00 in/hr0.0 mm/hr 0.00 in0.0 mm
09:30 PM 47.8°F8.8°C 41.9°F5.5°C 80% Calm Calm -- 30.42 in1030.1 mb 0.00 in0.0 mm 0.00 in/hr0.0 mm/hr 0.00 in0.0 mm
10:00 PM 46.4°F8.0°C 41.8°F5.4°C 84% Calm Calm -- 30.41 in1029.8 mb 0.00 in0.0 mm 0.00 in/hr0.0 mm/hr 0.00 in0.0 mm
10:30 PM 47.2°F8.4°C 42.3°F5.7°C 83% Calm Calm -- 30.42 in1030.1 mb 0.00 in0.0 mm 0.00 in/hr0.0 mm/hr 0.00 in0.0 mm
11:00 PM 46.1°F7.8°C 40.9°F4.9°C 82% Calm Calm -- 30.43 in1030.5 mb 0.00 in0.0 mm 0.00 in/hr0.0 mm/hr 0.00 in0.0 mm
11:30 PM 44.8°F7.1°C 40.6°F4.8°C 85% Calm Calm -- 30.43 in1030.5 mb 0.00 in0.0 mm 0.00 in/hr0.0 mm/hr 0.00 in0.0 mm